Latest Coastal Weather Observations for Orbost

IDV60701

Issued at 11:25 am EST Thursday 31 July 2014 (issued every 10 minutes, with the page automatically refreshed every 10 minutes)

About coastal observations | Map of coastal stations | Coastal observations for VIC | Marine services | Other Formats
Station Details ID: 084145 Name: ORBOST Lat: -37.69 Lon: 148.47 Height: 62.65 m
Data from the previous 72 hours. | See also: Recent months at Orbost
Date/Time
EST
Temp

°C
Wind Pressure Rain
since 9am
mm
Weather Cloud Vis
km
Sea
Height
m
Swell
Dir
 
Speed
knots
Gust
knots
hPa Trend Height
m
Period
s
Dir
31/11:14am 20.5 NW 15 26 998.8 - 0.0 - - - - - - -
31/11:00am 20.6 NW 13 23 999.3 - 0.0 - - - - - - -
31/10:30am 20.4 NW 11 19 1000.4 - 0.0 - - - - - - -
31/10:00am 20.1 NW 6 15 1001.0 - 0.0 - - - - - - -
31/09:30am 19.4 NNW 6 12 1001.5 - 0.0 - - - - - - -
31/09:00am 18.8 NNW 8 16 1001.9 - 0.0 - - - - - - -
31/08:30am 17.9 NNW 7 12 1002.4 - 0.0 - - - - - - -
31/08:00am 16.8 N 5 14 1003.1 - 0.0 - - - - - - -
31/07:30am 15.5 N 5 8 1003.4 - 0.0 - - - - - - -
31/07:00am 16.5 NNW 8 13 1003.8 - 0.0 - - - - - - -
31/06:30am 16.4 NW 8 16 1003.7 - 0.0 - - - - - - -
31/06:00am 15.1 NW 4 10 1004.0 - 0.0 - - - - - - -
31/05:30am 13.2 ENE 2 6 1004.4 - 0.0 - - - - - - -
31/05:00am 13.5 NNE 4 5 1004.7 - 0.0 - - - - - - -
31/04:30am 13.9 ENE 2 3 1004.8 - 0.0 - - - - - - -
31/04:00am 13.9 N 3 4 1005.5 - 0.0 - - - - - - -
31/03:30am 14.5 NNW 5 8 1005.9 - 0.0 - - - - - - -
31/03:00am 15.3 NNW 6 9 1006.6 - 0.0 - - - - - - -
31/02:30am 15.5 NNW 6 9 1006.8 - 0.0 - - - - - - -
31/02:00am 15.4 NW 5 8 1007.4 - 0.0 - - - - - - -
31/01:30am 16.1 WNW 6 10 1007.7 - 0.0 - - - - - - -
31/01:00am 15.8 NW 5 9 1007.9 - 0.0 - - - - - - -
31/12:30am 16.5 NW 8 12 1007.9 - 0.0 - - - - - - -
31/12:00am 15.7 NW 7 10 1008.1 - 0.0 - - - - - - -
 
Date/Time
EST
Temp

°C
Wind Pressure Rain
since 9am
mm
Weather Cloud Vis
km
Sea
Height
m
Swell
Dir
 
Speed
knots
Gust
knots
hPa Trend Height
m
Period
s
Dir
30/11:30pm 15.9 NW 7 12 1008.5 - 0.0 - - - - - - -
30/11:00pm 15.5 NW 7 11 1008.7 - 0.0 - - - - - - -
30/10:30pm 15.2 NW 5 9 1008.6 - 0.0 - - - - - - -
30/10:00pm 14.7 NW 4 6 1008.7 - 0.0 - - - - - - -
30/09:30pm 14.8 NNW 6 10 1008.7 - 0.0 - - - - - - -
30/09:00pm 13.4 N 4 6 1008.9 - 0.0 - - - - - - -
30/08:30pm 14.2 NW 3 5 1009.4 - 0.0 - - - - - - -
30/08:00pm 15.8 NNW 7 10 1009.6 - 0.0 - - - - - - -
30/07:30pm 16.7 NNW 11 15 1009.6 - 0.0 - - - - - - -
30/07:00pm 16.9 NNW 10 22 1009.7 - 0.0 - - - - - - -
30/06:30pm 16.9 NNW 9 13 1009.6 - 0.0 - - - - - - -
30/06:00pm 16.5 NNW 7 11 1009.6 - 0.0 - - - - - - -
30/05:30pm 17.2 NW 7 12 1009.2 - 0.0 - - - - - - -
30/05:00pm 18.1 NW 10 18 1008.9 - 0.0 - - - - - - -
30/04:30pm 18.6 NW 9 12 1008.9 - 0.0 - - - - - - -
30/04:00pm 19.3 NW 13 22 1008.9 - 0.0 - - - - - - -
30/03:30pm 19.6 NW 14 21 1008.8 - 0.0 - - - - - - -
30/03:00pm 20.1 NW 10 18 1008.7 - 0.0 - - - - - - -
30/02:30pm 19.9 WNW 11 18 1009.1 - 0.0 - - - - - - -
30/02:00pm 19.9 WNW 6 10 1009.2 - 0.0 - - - - - - -
30/01:30pm 19.0 WNW 6 10 1009.5 - 0.0 - - - - - - -
30/01:00pm 21.0 NW 10 16 1009.7 - 0.0 - - - - - - -
30/12:30pm 21.0 NW 10 17 1010.0 - 0.0 - - - - - - -
30/12:00pm 20.2 WNW 9 16 1010.2 - 0.0 - - - - - - -
30/11:30am 20.0 WNW 10 15 1010.7 - 0.0 - - - - - - -
30/11:00am 19.6 WNW 7 13 1011.1 - 0.0 - - - - - - -
30/10:30am 19.5 NW 7 12 1011.2 - 0.0 - - - - - - -
30/10:00am 18.5 NW 4 6 1011.2 - 0.0 - - - - - - -
30/09:30am 17.5 WNW 2 4 1011.1 - 0.0 - - - - - - -
30/09:00am 16.6 NW 5 7 1011.1 - 0.0 - - - - - - -
30/08:30am 14.4 N 1 3 1011.1 - 0.0 - - - - - - -
30/08:00am 12.4 CALM 0 0 1011.0 - 0.0 - - - - - - -
30/07:30am 12.2 ESE 1 2 1010.9 - 0.0 - - - - - - -
30/07:00am 13.1 SSE 1 3 1010.6 - 0.0 - - - - - - -
30/06:30am 12.6 SW 4 6 1010.3 - 0.0 - - - - - - -
30/06:00am 15.4 NW 6 12 1009.8 - 0.0 - - - - - - -
30/05:30am 14.2 WNW 3 5 1009.5 - 0.0 - - - - - - -
30/05:00am 14.8 WNW 3 4 1009.3 - 0.0 - - - - - - -
30/04:30am 15.0 WNW 3 5 1009.2 - 0.0 - - - - - - -
30/04:00am 16.1 NW 7 14 1009.0 - 0.0 - - - - - - -
30/03:30am 16.4 NW 9 16 1009.0 - 0.0 - - - - - - -
30/03:00am 16.4 NW 10 16 1008.7 - 0.0 - - - - - - -
30/02:30am 16.4 NW 9 16 1008.7 - 0.0 - - - - - - -
30/02:00am 16.4 NW 8 14 1008.6 - 0.0 - - - - - - -
30/01:30am 16.6 NW 9 16 1008.2 - 0.0 - - - - - - -
30/01:00am 16.2 NW 8 13 1008.3 - 0.0 - - - - - - -
30/12:30am 16.5 NW 12 18 1008.2 - 0.0 - - - - - - -
30/12:00am 16.6 NW 15 26 1008.0 - 0.0 - - - - - - -
 
Date/Time
EST
Temp

°C
Wind Pressure Rain
since 9am
mm
Weather Cloud Vis
km
Sea
Height
m
Swell
Dir
 
Speed
knots
Gust
knots
hPa Trend Height
m
Period
s
Dir
29/11:30pm 17.0 NW 16 27 1007.9 - 0.0 - - - - - - -
29/11:01pm 17.1 NW 15 26 1007.8 - 0.0 - - - - - - -
29/11:00pm 16.9 NW 14 26 1007.9 - 0.0 - - - - - - -
29/10:47pm 17.1 NW 15 29 1007.8 - 0.0 - - - - - - -
29/10:30pm 16.9 NW 12 22 1007.9 - 0.0 - - - - - - -
29/10:00pm 16.4 NW 12 19 1007.9 - 0.0 - - - - - - -
29/09:30pm 16.9 NW 13 23 1007.9 - 0.0 - - - - - - -
29/09:00pm 16.8 NW 11 18 1008.6 - 0.0 - - - - - - -
29/08:30pm 16.5 NW 12 20 1008.2 - 0.0 - - - - - - -
29/08:00pm 17.0 NW 12 26 1007.4 - 0.0 - - - - - - -
29/07:30pm 16.4 NW 9 15 1007.7 - 0.0 - - - - - - -
29/07:00pm 17.0 NNW 13 25 1007.0 - 0.0 - - - - - - -
29/06:30pm 16.8 NW 13 21 1007.2 - 0.0 - - - - - - -
29/06:00pm 16.5 NW 8 12 1007.3 - 0.0 - - - - - - -
29/05:30pm 16.6 NW 12 21 1006.9 - 0.0 - - - - - - -
29/05:00pm 16.7 NW 8 16 1006.7 - 0.0 - - - - - - -
29/04:30pm 16.8 NW 9 16 1006.4 - 0.0 - - - - - - -
29/04:00pm 17.3 NW 14 25 1006.2 - 0.0 - - - - - - -
29/03:30pm 17.4 NW 14 24 1006.3 - 0.0 - - - - - - -
29/03:00pm 17.6 NW 17 34 1006.1 - 0.0 - - - - - - -
29/02:58pm 17.7 NW 17 34 1005.8 - 0.0 - - - - - - -
29/02:30pm 17.5 NW 10 22 1006.3 - 0.0 - - - - - - -
29/02:00pm 18.2 NNW 21 35 1005.9 - 0.0 - - - - - - -
29/01:46pm 18.7 NNW 21 31 1006.2 - 0.0 - - - - - - -
29/01:30pm 17.8 NW 18 27 1006.5 - 0.0 - - - - - - -
29/01:00pm 17.6 NW 18 29 1007.4 - 0.0 - - - - - - -
29/12:40pm 18.7 NW 16 27 1007.2 - 0.0 - - - - - - -
29/12:30pm 19.0 WNW 11 18 1007.5 - 0.0 - - - - - - -
29/12:00pm 18.6 NW 14 28 1007.2 - 0.0 - - - - - - -
29/11:30am 18.0 NW 17 29 1008.1 - 0.0 - - - - - - -
29/11:18am 18.5 NW 15 27 1008.2 - 0.0 - - - - - - -
29/11:00am 18.6 NW 13 20 1008.3 - 0.0 - - - - - - -
29/10:30am 18.2 NNW 13 18 1008.8 - 0.0 - - - - - - -
29/10:00am 17.6 NW 10 16 1009.9 - 0.0 - - - - - - -
29/09:30am 17.0 NW 6 14 1009.0 - 0.0 - - - - - - -
29/09:00am 16.6 WNW 5 10 1009.0 - 0.0 - - - - - - -
29/08:30am 15.9 NW 6 13 1008.7 - 0.0 - - - - - - -
29/08:00am 14.9 NNW 5 8 1008.9 - 0.0 - - - - - - -
29/07:30am 11.9 NNW 3 6 1009.3 - 0.0 - - - - - - -
29/07:00am 11.8 WSW 2 3 1009.0 - 0.0 - - - - - - -
29/06:30am 13.2 WNW 4 6 1008.7 - 0.0 - - - - - - -
29/06:00am 13.3 NW 5 8 1009.0 - 0.0 - - - - - - -
29/05:30am 8.9 NW 2 4 1009.3 - 0.0 - - - - - - -
29/05:00am 11.4 NNW 4 7 1009.2 - 0.0 - - - - - - -
29/04:30am 9.0 N 5 8 1009.5 - 0.0 - - - - - - -
29/04:00am 10.9 N 4 5 1009.7 - 0.0 - - - - - - -
29/03:30am 10.9 N 4 6 1009.9 - 0.0 - - - - - - -
29/03:00am 9.4 N 3 4 1010.1 - 0.0 - - - - - - -
29/02:30am 10.9 N 1 2 1010.5 - 0.0 - - - - - - -
29/02:00am 11.0 N 2 2 1010.9 - 0.0 - - - - - - -
29/01:30am 11.1 NNW 1 2 1011.2 - 0.0 - - - - - - -
29/01:00am 11.0 NNW 2 3 1011.7 - 0.0 - - - - - - -
29/12:30am 11.4 NNW 2 3 1011.8 - 0.0 - - - - - - -
29/12:00am 12.1 NNW 3 4 1012.2 - 0.0 - - - - - - -
 
Date/Time
EST
Temp

°C
Wind Pressure Rain
since 9am
mm
Weather Cloud Vis
km
Sea
Height
m
Swell
Dir
 
Speed
knots
Gust
knots
hPa Trend Height
m
Period
s
Dir
28/11:30pm 11.9 NNW 3 5 1012.3 - 0.0 - - - - - - -
28/11:00pm 12.4 SW 2 3 1012.7 - 0.0 - - - - - - -
28/10:30pm 11.9 SSW 2 4 1012.4 - 0.0 - - - - - - -
28/10:00pm 14.3 NNW 3 8 1012.1 - 0.0 - - - - - - -
28/09:30pm 13.8 NNW 5 8 1012.1 - 0.0 - - - - - - -
28/09:00pm 14.6 N 8 13 1012.3 - 0.0 - - - - - - -
28/08:30pm 13.9 N 8 13 1012.4 - 0.0 - - - - - - -
28/08:00pm 13.6 N 5 6 1012.8 - 0.0 - - - - - - -
28/07:30pm 13.0 NNW 4 6 1013.1 - 0.0 - - - - - - -
28/07:00pm 14.8 N 9 14 1013.0 - 0.0 - - - - - - -
28/06:30pm 14.9 N 8 10 1012.9 - 0.0 - - - - - - -
28/06:00pm 15.2 N 8 14 1012.6 - 0.0 - - - - - - -
28/05:30pm 15.1 N 8 12 1012.5 - 0.0 - - - - - - -
28/05:00pm 15.9 N 8 11 1012.7 - 0.0 - - - - - - -
28/04:30pm 17.4 N 8 11 1012.8 - 0.0 - - - - - - -
28/04:00pm 18.3 NNW 9 13 1012.8 - 0.0 - - - - - - -
28/03:30pm 18.8 NNW 11 17 1012.9 - 0.0 - - - - - - -
28/03:00pm 19.2 NW 8 15 1013.0 - 0.0 - - - - - - -
28/02:30pm 19.1 NNW 11 17 1013.0 - 0.0 - - - - - - -
28/02:00pm 19.5 NNW 10 18 1013.3 - 0.0 - - - - - - -
28/01:30pm 19.4 NW 9 15 1013.6 - 0.0 - - - - - - -
28/01:00pm 19.2 NW 9 16 1014.0 - 0.0 - - - - - - -
28/12:30pm 18.6 NW 11 17 1014.5 - 0.0 - - - - - - -
28/12:00pm 18.0 NW 14 22 1015.1 - 0.0 - - - - - - -
28/11:30am 17.7 NW 12 17 1015.3 - 0.0 - - - - - - -

Other Formats:

Comma delimited format used in spreadsheet applications
http://www.bom.gov.au/fwo/IDV60701/IDV60701.95918.axf

JavaScript Object Notation format (JSON) in row-major order
http://www.bom.gov.au/fwo/IDV60701/IDV60701.95918.json